Time;durP1;ratioP1;P1;durP2;ratioP2;P2;SDS_P1;SDS_P2;PMS_P1;PMS_P2;Temp;Humidity;BMP_temperature;BMP_pressure;BME280_temperature;BME280_humidity;BME280_pressure;Samples;Min_cycle;Max_cycle;Signal;HPM_P1;HPM_P2
2021/05/07 00:01:16;;;;;;;33.10;19.20;;;9.50;89.90;;;;;;5055711;28;20025;-95
2021/05/07 00:03:42;;;;;;;36.67;18.77;;;9.40;89.70;;;;;;5055953;28;20497;-94
2021/05/07 00:06:10;;;;;;;32.53;17.20;;;9.40;89.50;;;;;;5055722;28;20025;-94
2021/05/07 00:08:37;;;;;;;30.33;16.75;;;9.40;89.80;;;;;;5055759;28;20540;-95
2021/05/07 00:11:17;;;;;;;24.83;15.73;;;9.40;89.90;;;;;;5055652;28;20039;-94
2021/05/07 00:13:44;;;;;;;27.67;15.73;;;9.30;90.00;;;;;;5055679;28;20028;-94
2021/05/07 00:16:10;;;;;;;27.67;16.02;;;9.30;89.80;;;;;;5055396;28;20276;-94
2021/05/07 00:18:38;;;;;;;27.27;16.60;;;9.30;89.70;;;;;;5055672;28;20021;-94
2021/05/07 00:21:04;;;;;;;28.42;15.73;;;9.30;89.60;;;;;;5055565;28;20029;-94
2021/05/07 00:23:30;;;;;;;25.00;14.63;;;9.30;89.50;;;;;;5055556;28;20021;-94
2021/05/07 00:25:56;;;;;;;22.50;14.95;;;9.30;89.20;;;;;;5055424;28;20036;-94
2021/05/07 00:28:22;;;;;;;25.17;15.32;;;9.30;89.40;;;;;;5055304;28;20033;-94
2021/05/07 00:30:48;;;;;;;23.40;14.10;;;9.30;89.40;;;;;;5055342;28;20509;-94
2021/05/07 00:33:14;;;;;;;22.60;14.27;;;9.20;89.30;;;;;;5055186;28;20029;-94
2021/05/07 00:35:39;;;;;;;23.85;14.15;;;9.20;89.20;;;;;;5055048;28;20064;-93
2021/05/07 00:38:06;;;;;;;19.00;12.93;;;9.20;88.90;;;;;;5055081;28;20391;-93
2021/05/07 00:40:32;;;;;;;20.35;13.20;;;9.20;88.80;;;;;;5055107;28;20025;-93
2021/05/07 00:42:58;;;;;;;18.45;11.75;;;9.20;88.80;;;;;;5055077;28;20074;-93
2021/05/07 00:45:24;;;;;;;23.58;13.15;;;9.10;88.70;;;;;;5055209;28;20021;-93
2021/05/07 00:48:04;;;;;;;20.58;12.70;;;9.10;88.70;;;;;;5054975;28;20024;-93
2021/05/07 00:50:31;;;;;;;18.30;12.13;;;9.10;89.00;;;;;;5055099;28;20108;-93
2021/05/07 00:52:58;;;;;;;19.60;11.75;;;9.10;88.80;;;;;;5055751;28;20082;-93
2021/05/07 00:55:28;;;;;;;20.73;11.52;;;9.00;88.90;;;;;;5054897;28;20467;-93
2021/05/07 00:57:55;;;;;;;22.27;11.55;;;9.00;89.00;;;;;;5054812;28;20031;-92
2021/05/07 01:00:22;;;;;;;17.92;11.85;;;9.00;88.90;;;;;;5055904;28;20024;-92
2021/05/07 01:02:48;;;;;;;25.75;11.98;;;9.00;88.80;;;;;;5055736;28;20021;-93
2021/05/07 01:05:14;;;;;;;20.40;13.13;;;8.90;88.50;;;;;;5054562;28;20032;-93
2021/05/07 01:07:40;;;;;;;21.90;13.75;;;8.90;88.60;;;;;;5055859;28;20418;-92
2021/05/07 01:10:08;;;;;;;23.42;13.65;;;8.80;88.70;;;;;;5054838;28;20035;-93
2021/05/07 01:12:36;;;;;;;30.40;18.08;;;8.80;88.70;;;;;;5054006;28;20052;-92
2021/05/07 01:15:08;;;;;;;37.75;24.73;;;8.70;88.80;;;;;;5054640;28;20029;-93
2021/05/07 01:17:37;;;;;;;49.33;28.65;;;8.70;88.90;;;;;;5054454;28;20051;-93
2021/05/07 01:20:16;;;;;;;49.50;29.35;;;8.60;89.00;;;;;;5054326;28;20360;-92
2021/05/07 01:22:47;;;;;;;45.13;27.80;;;8.60;89.20;;;;;;5054406;28;20021;-92
2021/05/07 01:25:20;;;;;;;40.38;24.05;;;8.60;89.30;;;;;;5054284;28;20029;-93
2021/05/07 01:27:48;;;;;;;35.78;22.70;;;8.60;89.10;;;;;;5054181;28;20120;-93
2021/05/07 01:30:14;;;;;;;33.90;22.17;;;8.50;89.50;;;;;;5054217;28;20486;-93
2021/05/07 01:32:40;;;;;;;35.75;20.98;;;8.50;89.90;;;;;;5055433;28;20057;-92
2021/05/07 01:35:15;;;;;;;32.35;20.52;;;8.60;89.70;;;;;;5054825;28;20080;-93
2021/05/07 01:37:46;;;;;;;28.90;17.15;;;8.60;89.40;;;;;;5055344;28;20013;-93
2021/05/07 01:40:18;;;;;;;23.95;16.35;;;8.60;89.20;;;;;;5054964;28;20017;-92
2021/05/07 01:42:46;;;;;;;25.88;16.08;;;8.50;89.30;;;;;;5053898;28;20071;-92
2021/05/07 01:45:12;;;;;;;23.10;15.15;;;8.50;89.40;;;;;;5053359;28;20386;-93
2021/05/07 01:47:38;;;;;;;23.13;14.48;;;8.50;89.40;;;;;;5054884;28;20360;-93
2021/05/07 01:50:05;;;;;;;23.67;15.15;;;8.50;89.10;;;;;;5053669;28;20040;-92
2021/05/07 01:52:32;;;;;;;22.90;14.93;;;8.50;88.90;;;;;;5054830;28;20029;-92
2021/05/07 01:54:57;;;;;;;20.95;14.00;;;8.50;89.10;;;;;;5053717;28;20806;-93
2021/05/07 01:57:31;;;;;;;21.10;14.70;;;8.40;89.30;;;;;;5053875;28;20028;-92
2021/05/07 01:59:58;;;;;;;26.30;16.02;;;8.40;89.50;;;;;;5053565;28;20021;-93
2021/05/07 02:02:23;;;;;;;23.85;15.80;;;8.40;89.40;;;;;;5053668;28;20029;-92
2021/05/07 02:04:49;;;;;;;25.83;17.05;;;8.40;89.30;;;;;;5054601;28;20181;-92
2021/05/07 02:07:15;;;;;;;31.67;18.27;;;8.40;89.20;;;;;;5054685;28;20029;-92
2021/05/07 02:09:40;;;;;;;26.75;16.75;;;8.40;89.40;;;;;;5054468;28;20036;-92
2021/05/07 02:12:07;;;;;;;27.50;16.45;;;8.40;89.40;;;;;;5054514;28;20025;-92
2021/05/07 02:14:32;;;;;;;24.52;14.70;;;8.40;89.40;;;;;;5054340;28;20025;-93
2021/05/07 02:17:00;;;;;;;24.40;15.35;;;8.40;89.30;;;;;;5053160;28;20035;-92
2021/05/07 02:19:26;;;;;;;25.52;14.23;;;8.40;89.20;;;;;;5053533;28;20055;-92
2021/05/07 02:21:51;;;;;;;21.38;14.05;;;8.40;89.20;;;;;;5053330;28;20048;-92
2021/05/07 02:24:17;;;;;;;21.15;13.23;;;8.40;89.20;;;;;;5054358;28;20362;-92
2021/05/07 02:26:43;;;;;;;20.88;13.18;;;8.40;89.20;;;;;;5053157;28;20027;-92
2021/05/07 02:29:09;;;;;;;20.92;13.02;;;8.40;89.00;;;;;;5053025;28;20033;-91
2021/05/07 02:31:34;;;;;;;23.17;13.95;;;8.30;88.90;;;;;;5053177;28;20028;-92
2021/05/07 02:34:00;;;;;;;23.10;14.05;;;8.30;89.40;;;;;;5053098;28;20025;-92
2021/05/07 02:36:26;;;;;;;24.75;15.85;;;8.40;89.60;;;;;;5052346;28;20049;-92
2021/05/07 02:38:51;;;;;;;24.83;15.75;;;8.30;89.50;;;;;;5053623;28;20471;-92
2021/05/07 02:41:17;;;;;;;25.98;16.23;;;8.30;89.40;;;;;;5053137;28;20071;-92
2021/05/07 02:43:43;;;;;;;26.27;15.93;;;8.40;89.40;;;;;;5053733;28;20029;-92
2021/05/07 02:46:09;;;;;;;28.27;15.73;;;8.40;89.50;;;;;;5053524;28;20037;-92
2021/05/07 02:48:34;;;;;;;23.20;15.35;;;8.40;89.60;;;;;;5053152;28;20040;-92
2021/05/07 02:51:00;;;;;;;24.77;15.30;;;8.40;89.50;;;;;;5052991;28;20020;-91
2021/05/07 02:53:26;;;;;;;23.10;14.73;;;8.40;89.50;;;;;;5053521;28;20043;-92
2021/05/07 02:55:52;;;;;;;25.40;16.02;;;8.30;89.40;;;;;;5053783;28;20383;-92
2021/05/07 02:58:18;;;;;;;24.08;14.90;;;8.40;89.70;;;;;;5056571;28;20103;-92
2021/05/07 03:00:43;;;;;;;22.45;14.27;;;8.40;89.70;;;;;;5057018;28;20021;-89
2021/05/07 03:03:09;;;;;;;19.80;13.27;;;8.40;89.50;;;;;;5058945;28;20029;-93
2021/05/07 03:05:34;;;;;;;18.67;12.68;;;8.40;89.70;;;;;;5058519;28;20387;-93
2021/05/07 03:08:00;;;;;;;20.45;12.13;;;8.40;89.90;;;;;;5057142;28;20078;-93
2021/05/07 03:10:26;;;;;;;17.67;11.18;;;8.40;90.00;;;;;;5056847;28;20083;-93
2021/05/07 03:12:52;;;;;;;20.52;11.38;;;8.40;89.80;;;;;;5056560;28;20029;-93
2021/05/07 03:15:18;;;;;;;18.60;10.98;;;8.50;89.80;;;;;;5056539;28;20029;-93
2021/05/07 03:17:44;;;;;;;19.05;11.48;;;8.50;89.90;;;;;;5056707;28;20025;-93
2021/05/07 03:20:11;;;;;;;16.42;11.20;;;8.50;90.00;;;;;;5056785;28;20074;-93
2021/05/07 03:22:37;;;;;;;18.60;11.27;;;8.50;90.00;;;;;;5056581;28;20021;-92
2021/05/07 03:25:03;;;;;;;18.58;11.77;;;8.60;90.10;;;;;;5056452;28;20035;-93
2021/05/07 03:27:29;;;;;;;18.80;11.02;;;8.60;90.20;;;;;;5056365;28;20025;-93
2021/05/07 03:29:54;;;;;;;17.08;10.45;;;8.60;90.20;;;;;;5056543;28;20414;-94
2021/05/07 03:32:20;;;;;;;16.45;10.35;;;8.70;90.20;;;;;;5056693;28;20029;-94
2021/05/07 03:34:49;;;;;;;17.20;10.23;;;8.70;90.10;;;;;;5056111;28;20123;-93
2021/05/07 03:37:15;;;;;;;15.93;10.38;;;8.80;90.20;;;;;;5056432;28;20360;-94
2021/05/07 03:39:41;;;;;;;16.33;9.98;;;8.80;90.20;;;;;;5056170;28;20530;-94
2021/05/07 03:42:06;;;;;;;17.50;11.13;;;8.90;90.20;;;;;;5056303;28;20025;-94
2021/05/07 03:44:32;;;;;;;16.30;10.38;;;8.90;90.30;;;;;;5056159;28;20028;-95
2021/05/07 03:46:58;;;;;;;16.75;10.23;;;9.00;90.20;;;;;;5056430;28;20039;-95
2021/05/07 03:49:23;;;;;;;17.10;10.32;;;9.00;90.20;;;;;;5056051;28;20032;-95
2021/05/07 03:51:49;;;;;;;15.68;10.10;;;9.10;90.20;;;;;;5056564;28;20498;-95
2021/05/07 03:54:15;;;;;;;17.73;10.43;;;9.10;90.10;;;;;;5056646;28;20044;-94
2021/05/07 03:56:40;;;;;;;15.57;9.57;;;9.20;90.20;;;;;;5056200;28;20035;-93
2021/05/07 03:59:06;;;;;;;14.50;9.85;;;9.30;90.10;;;;;;5055975;28;20032;-94
2021/05/07 04:01:35;;;;;;;13.48;8.95;;;9.40;90.00;;;;;;5056082;28;20028;-94
2021/05/07 04:04:01;;;;;;;13.40;8.80;;;9.40;89.70;;;;;;5055858;28;20375;-94
2021/05/07 04:06:27;;;;;;;14.05;8.60;;;9.50;89.50;;;;;;5056995;28;20039;-93
2021/05/07 04:11:49;;;;;;;14.10;7.88;;;9.70;89.60;;;;;;5056707;28;20025;-94
2021/05/07 04:14:15;;;;;;;13.68;7.45;;;9.80;89.50;;;;;;5055582;28;20390;-94
2021/05/07 04:16:41;;;;;;;12.85;8.43;;;9.90;89.30;;;;;;5055751;28;20024;-94
2021/05/07 04:19:07;;;;;;;11.18;7.82;;;9.90;89.10;;;;;;5055591;28;20028;-94
2021/05/07 04:21:33;;;;;;;10.40;7.45;;;10.00;89.00;;;;;;5055687;28;20112;-93
2021/05/07 04:23:58;;;;;;;13.35;8.00;;;10.00;88.60;;;;;;5055486;28;20021;-92
2021/05/07 04:26:24;;;;;;;11.10;7.85;;;10.10;88.70;;;;;;5055498;28;20095;-93
2021/05/07 04:28:50;;;;;;;14.50;9.40;;;10.10;88.50;;;;;;5055664;28;20387;-91
2021/05/07 04:31:15;;;;;;;13.13;8.85;;;10.20;88.60;;;;;;5055169;28;20025;-87
2021/05/07 04:33:41;;;;;;;12.27;9.05;;;10.20;88.40;;;;;;5055588;28;20032;-88
2021/05/07 04:36:07;;;;;;;14.77;9.25;;;10.30;88.40;;;;;;5054911;28;20049;-88
2021/05/07 04:38:33;;;;;;;13.10;8.77;;;10.40;88.00;;;;;;5054938;28;20163;-88
2021/05/07 04:40:59;;;;;;;15.85;9.68;;;10.40;87.90;;;;;;5054709;28;20112;-89
2021/05/07 04:43:25;;;;;;;16.98;11.32;;;10.50;87.70;;;;;;5053611;28;20031;-90
2021/05/07 04:45:50;;;;;;;19.85;10.77;;;10.50;87.80;;;;;;5056465;28;20025;-90
2021/05/07 04:48:16;;;;;;;22.05;11.23;;;10.50;87.90;;;;;;5055697;28;20028;-88
2021/05/07 04:50:43;;;;;;;13.65;9.10;;;10.60;87.80;;;;;;5055458;28;20418;-89
2021/05/07 04:53:09;;;;;;;11.65;8.30;;;10.70;87.70;;;;;;5054972;28;20025;-90
2021/05/07 04:55:34;;;;;;;14.73;8.85;;;10.80;87.20;;;;;;5054069;28;20494;-87
2021/05/07 04:58:00;;;;;;;16.25;9.38;;;10.80;87.00;;;;;;5055420;28;20025;-87
2021/05/07 05:00:26;;;;;;;13.60;9.35;;;10.90;87.00;;;;;;5054073;28;20075;-88
2021/05/07 05:02:52;;;;;;;11.80;8.95;;;10.90;87.00;;;;;;5054115;28;20373;-88
2021/05/07 05:05:18;;;;;;;12.35;8.20;;;10.90;87.00;;;;;;5053877;28;20128;-86
2021/05/07 05:07:52;;;;;;;13.02;8.07;;;11.00;86.70;;;;;;5053551;28;20117;-84
2021/05/07 05:10:22;;;;;;;12.02;7.38;;;11.10;86.50;;;;;;5037552;28;20429;-86
2021/05/07 05:12:47;;;;;;;14.57;7.53;;;11.20;86.20;;;;;;5053432;28;20840;-82
2021/05/07 05:15:14;;;;;;;15.25;7.70;;;11.30;86.00;;;;;;5053287;28;20036;-83
2021/05/07 05:17:40;;;;;;;16.85;7.85;;;11.30;85.50;;;;;;5053499;28;20395;-83
2021/05/07 05:20:07;;;;;;;18.23;9.52;;;11.40;85.40;;;;;;5053876;28;20028;-84
2021/05/07 05:22:33;;;;;;;14.68;8.05;;;11.40;85.30;;;;;;5053432;28;20025;-84
2021/05/07 05:25:04;;;;;;;14.45;8.88;;;11.50;85.00;;;;;;5054522;28;20029;-84
2021/05/07 05:27:30;;;;;;;15.50;8.15;;;11.60;84.70;;;;;;5053797;28;20825;-84
2021/05/07 05:29:56;;;;;;;21.15;8.40;;;11.70;84.40;;;;;;5053282;28;20029;-83
2021/05/07 05:32:21;;;;;;;16.75;8.70;;;11.80;84.40;;;;;;5054341;28;20096;-76
2021/05/07 05:34:47;;;;;;;34.95;14.25;;;11.80;84.00;;;;;;5053534;28;20052;-77
2021/05/07 05:37:16;;;;;;;71.28;24.92;;;11.90;83.60;;;;;;5053384;28;20025;-76
2021/05/07 05:39:41;;;;;;;27.05;15.02;;;12.00;83.40;;;;;;5053983;28;20025;-79
2021/05/07 05:42:07;;;;;;;22.60;11.07;;;12.10;82.30;;;;;;5054274;28;20017;-80
2021/05/07 05:44:33;;;;;;;19.02;10.52;;;12.20;81.90;;;;;;5053001;28;20017;-79
2021/05/07 05:46:59;;;;;;;19.27;9.68;;;12.30;81.60;;;;;;5054260;28;20029;-79
2021/05/07 05:49:24;;;;;;;14.52;8.15;;;12.40;81.20;;;;;;5052847;28;20028;-79
2021/05/07 05:51:50;;;;;;;15.70;7.95;;;12.50;80.30;;;;;;5054157;28;20032;-79
2021/05/07 05:54:16;;;;;;;19.52;7.30;;;12.60;80.10;;;;;;5052850;28;20036;-79
2021/05/07 05:56:42;;;;;;;15.45;6.80;;;12.80;77.40;;;;;;5053815;28;20383;-79
2021/05/07 05:59:08;;;;;;;10.07;5.65;;;12.90;76.80;;;;;;5052713;28;20055;-79
2021/05/07 06:01:33;;;;;;;13.57;5.75;;;13.10;77.20;;;;;;5053897;28;20060;-80
2021/05/07 06:04:05;;;;;;;11.88;6.25;;;13.20;76.70;;;;;;5052714;28;20474;-79
2021/05/07 06:06:31;;;;;;;11.75;5.50;;;13.30;75.40;;;;;;5054107;28;20021;-79
2021/05/07 06:08:57;;;;;;;12.65;6.45;;;13.30;75.70;;;;;;5053852;28;20482;-80
2021/05/07 06:11:23;;;;;;;11.23;5.95;;;13.40;75.00;;;;;;5052586;28;20475;-79
2021/05/07 06:13:51;;;;;;;8.10;4.90;;;13.40;74.70;;;;;;5053815;28;20025;-80
2021/05/07 06:16:17;;;;;;;12.43;5.60;;;13.50;74.60;;;;;;5054036;28;20056;-79
2021/05/07 06:18:43;;;;;;;10.10;5.22;;;13.50;74.00;;;;;;5053010;28;20021;-80
2021/05/07 06:21:08;;;;;;;15.98;6.40;;;13.60;73.20;;;;;;5053678;28;20028;-79
2021/05/07 06:23:34;;;;;;;13.65;6.35;;;13.70;72.30;;;;;;5052273;28;20118;-79
2021/05/07 06:26:02;;;;;;;29.33;9.15;;;13.80;72.60;;;;;;5052270;28;20437;-79
2021/05/07 06:28:27;;;;;;;30.90;10.15;;;13.90;71.90;;;;;;5053391;28;20021;-79
2021/05/07 06:30:58;;;;;;;27.77;9.93;;;14.00;70.70;;;;;;5053332;28;20036;-79
2021/05/07 06:33:23;;;;;;;22.42;7.65;;;14.10;70.70;;;;;;5053449;28;20059;-80
2021/05/07 06:35:49;;;;;;;17.50;7.15;;;14.30;70.60;;;;;;5051944;28;20486;-79
2021/05/07 06:38:14;;;;;;;23.58;7.25;;;14.40;69.50;;;;;;5052324;28;20071;-79
2021/05/07 06:40:40;;;;;;;23.83;7.93;;;14.50;68.10;;;;;;5052173;28;20021;-80
2021/05/07 06:43:06;;;;;;;20.15;8.15;;;14.60;68.30;;;;;;5052172;28;20028;-79
2021/05/07 06:45:32;;;;;;;16.98;7.00;;;14.60;68.50;;;;;;5052216;28;20470;-80
2021/05/07 06:47:57;;;;;;;15.70;6.20;;;14.60;68.30;;;;;;5052191;28;20048;-79
2021/05/07 06:50:23;;;;;;;24.75;7.50;;;14.60;68.30;;;;;;5053262;28;20485;-79
2021/05/07 06:52:49;;;;;;;28.55;7.75;;;14.70;65.40;;;;;;5053431;28;20036;-80
2021/05/07 06:55:15;;;;;;;29.73;9.27;;;14.90;63.70;;;;;;5052084;28;20029;-79
2021/05/07 06:57:40;;;;;;;26.20;8.40;;;15.00;65.00;;;;;;5053340;28;20371;-78
2021/05/07 07:00:08;;;;;;;33.78;10.32;;;15.10;65.00;;;;;;5053328;28;20032;-78
2021/05/07 07:02:34;;;;;;;46.72;12.88;;;15.20;64.50;;;;;;5053149;28;20021;-78
2021/05/07 07:05:00;;;;;;;33.30;8.80;;;15.30;64.90;;;;;;5051956;28;20017;-79
2021/05/07 07:07:26;;;;;;;14.10;5.15;;;15.30;63.90;;;;;;5052395;28;20021;-79
2021/05/07 07:09:53;;;;;;;9.65;3.90;;;15.40;60.40;;;;;;5051777;28;20031;-80
2021/05/07 07:12:18;;;;;;;11.43;4.05;;;15.50;60.60;;;;;;5053076;28;20554;-77
2021/05/07 07:14:44;;;;;;;13.75;4.78;;;15.50;60.10;;;;;;5051779;28;20064;-78
2021/05/07 07:17:10;;;;;;;11.90;4.80;;;15.50;56.60;;;;;;5052991;28;20017;-78
2021/05/07 07:19:36;;;;;;;15.07;4.90;;;15.60;57.50;;;;;;5051402;28;20029;-81
2021/05/07 07:22:06;;;;;;;9.40;4.72;;;15.70;55.40;;;;;;5051956;28;20450;-79
2021/05/07 07:24:32;;;;;;;7.53;3.75;;;15.80;56.40;;;;;;5053115;28;20082;-79
2021/05/07 07:26:58;;;;;;;11.50;4.55;;;15.90;56.60;;;;;;5052966;28;20033;-79
2021/05/07 07:29:23;;;;;;;16.38;5.20;;;16.10;55.60;;;;;;5051715;28;20025;-77
2021/05/07 07:31:51;;;;;;;10.65;4.75;;;16.20;56.10;;;;;;5052894;28;20032;-79
2021/05/07 07:34:17;;;;;;;8.05;2.92;;;16.30;55.80;;;;;;5051247;28;20033;-75
2021/05/07 07:36:45;;;;;;;5.40;2.85;;;16.50;54.60;;;;;;5052847;28;20025;-78
2021/05/07 07:39:14;;;;;;;4.82;1.88;;;16.70;55.10;;;;;;5051292;28;20028;-77
2021/05/07 07:41:40;;;;;;;5.40;2.80;;;16.90;54.00;;;;;;5052750;28;20151;-78
2021/05/07 07:44:07;;;;;;;8.80;4.63;;;17.10;52.50;;;;;;5055633;28;20073;-78
2021/05/07 07:46:32;;;;;;;9.38;3.40;;;17.20;52.80;;;;;;5055200;28;20029;-77
2021/05/07 07:48:58;;;;;;;4.13;2.53;;;17.30;52.40;;;;;;5054605;28;20048;-77
2021/05/07 07:51:29;;;;;;;6.18;3.13;;;17.50;52.90;;;;;;5055107;28;20029;-77
2021/05/07 07:53:58;;;;;;;10.00;2.50;;;17.60;52.60;;;;;;5055076;28;20040;-78
2021/05/07 07:56:24;;;;;;;2.85;2.55;;;17.70;51.50;;;;;;5055465;28;20079;-78
2021/05/07 07:58:49;;;;;;;3.80;2.10;;;17.70;51.20;;;;;;5055521;28;20017;-77
2021/05/07 08:01:15;;;;;;;3.42;1.80;;;17.90;50.30;;;;;;5055596;28;20029;-78
2021/05/07 08:03:41;;;;;;;4.10;2.20;;;18.10;49.80;;;;;;5056221;28;20024;-77
2021/05/07 08:06:07;;;;;;;4.90;3.00;;;18.10;48.80;;;;;;5056324;28;20370;-77
2021/05/07 08:08:33;;;;;;;2.30;2.10;;;18.10;47.90;;;;;;5054513;28;20383;-77
2021/05/07 08:10:58;;;;;;;3.25;2.70;;;18.20;48.10;;;;;;5054834;28;20106;-78
2021/05/07 08:13:24;;;;;;;5.40;2.42;;;18.20;46.60;;;;;;5054774;28;20025;-77
2021/05/07 08:15:50;;;;;;;2.90;2.58;;;18.30;47.70;;;;;;5055932;28;20033;-78
2021/05/07 08:18:15;;;;;;;2.38;2.13;;;18.40;48.50;;;;;;5055937;28;20391;-77
2021/05/07 08:20:41;;;;;;;5.10;2.10;;;18.40;47.30;;;;;;5056173;28;20026;-78
2021/05/07 08:23:07;;;;;;;3.63;2.90;;;18.50;45.90;;;;;;5054910;28;20366;-77
2021/05/07 08:25:32;;;;;;;3.42;3.00;;;18.50;46.10;;;;;;5056285;28;20367;-78
2021/05/07 08:27:58;;;;;;;3.88;2.33;;;18.60;46.90;;;;;;5055537;28;20051;-77
2021/05/07 08:30:24;;;;;;;2.75;2.42;;;18.70;46.80;;;;;;5055984;28;20029;-77
2021/05/07 08:32:50;;;;;;;2.53;2.33;;;18.80;45.80;;;;;;5055878;28;20386;-78
2021/05/07 08:35:15;;;;;;;2.13;1.80;;;18.80;44.60;;;;;;5055380;28;20461;-77
2021/05/07 08:37:44;;;;;;;2.75;1.60;;;18.90;44.70;;;;;;5054878;28;20028;-78
2021/05/07 08:40:15;;;;;;;3.78;2.25;;;18.90;44.80;;;;;;5055289;28;20021;-78
2021/05/07 08:42:41;;;;;;;6.15;3.75;;;19.00;45.20;;;;;;5052386;28;20036;-79
2021/05/07 08:45:08;;;;;;;5.30;3.97;;;19.00;45.20;;;;;;5055527;28;20520;-78
2021/05/07 08:47:34;;;;;;;5.53;3.17;;;19.10;45.50;;;;;;5055416;28;20032;-80
2021/05/07 08:50:04;;;;;;;2.75;2.15;;;19.00;44.70;;;;;;5055262;28;20434;-79
2021/05/07 08:52:30;;;;;;;2.97;1.75;;;19.00;45.00;;;;;;5053830;28;20115;-80
2021/05/07 08:54:56;;;;;;;9.73;1.98;;;19.10;44.70;;;;;;5053746;28;20048;-78
2021/05/07 08:57:23;;;;;;;7.85;1.92;;;19.00;44.10;;;;;;5055282;28;20096;-79
2021/05/07 08:59:49;;;;;;;4.28;1.70;;;19.00;43.00;;;;;;5053898;28;20449;-80
2021/05/07 09:02:28;;;;;;;1.92;1.77;;;18.90;43.00;;;;;;5055037;28;20021;-79
2021/05/07 09:04:55;;;;;;;2.45;1.90;;;19.00;44.20;;;;;;5055050;28;20025;-80
2021/05/07 09:07:22;;;;;;;4.35;1.70;;;19.00;43.60;;;;;;5054720;28;20021;-78
2021/05/07 09:09:50;;;;;;;2.47;1.55;;;19.10;43.70;;;;;;5054959;28;20375;-80
2021/05/07 09:12:38;;;;;;;5.20;1.60;;;19.20;44.60;;;;;;5053576;28;20060;-79
2021/05/07 09:15:06;;;;;;;2.53;1.67;;;19.20;44.00;;;;;;5054747;28;20027;-77
2021/05/07 09:17:35;;;;;;;5.85;2.90;;;19.30;44.90;;;;;;5054881;28;20105;-79
2021/05/07 09:20:11;;;;;;;3.47;2.40;;;19.50;44.70;;;;;;5054654;28;20108;-79
2021/05/07 09:22:37;;;;;;;3.63;3.22;;;19.50;43.00;;;;;;5053233;28;20386;-78
2021/05/07 09:25:08;;;;;;;3.22;1.30;;;19.40;42.90;;;;;;5054169;28;20100;-78
2021/05/07 09:27:34;;;;;;;3.08;1.65;;;19.60;43.80;;;;;;5054461;28;20424;-78
2021/05/07 09:30:00;;;;;;;1.50;1.17;;;19.60;44.00;;;;;;5053511;28;20021;-77
2021/05/07 09:32:32;;;;;;;1.48;1.25;;;19.70;44.30;;;;;;5053606;28;20028;-78
2021/05/07 09:35:13;;;;;;;3.72;1.30;;;19.80;43.40;;;;;;5053399;28;20390;-78
2021/05/07 09:37:40;;;;;;;2.22;1.58;;;19.70;42.80;;;;;;5053361;28;20031;-79
2021/05/07 09:40:20;;;;;;;3.97;1.73;;;19.70;43.70;;;;;;5052635;28;20028;-78
2021/05/07 09:42:47;;;;;;;7.85;1.77;;;19.70;43.00;;;;;;5053248;28;20506;-78
2021/05/07 09:45:24;;;;;;;2.55;1.52;;;19.70;43.30;;;;;;5053737;28;20116;-78
2021/05/07 09:47:54;;;;;;;3.95;1.60;;;19.70;43.50;;;;;;5045721;28;20096;-79
2021/05/07 09:50:37;;;;;;;3.72;1.50;;;19.70;43.40;;;;;;5054041;28;20354;-78
2021/05/07 09:53:22;;;;;;;10.88;1.77;;;19.80;43.40;;;;;;5037476;28;20036;-80
2021/05/07 09:55:50;;;;;;;2.58;1.80;;;20.00;43.40;;;;;;5047534;28;20025;-78
2021/05/07 09:58:16;;;;;;;5.00;1.67;;;20.10;43.10;;;;;;5033899;28;20055;-78
2021/05/07 10:00:42;;;;;;;3.00;1.80;;;20.20;42.50;;;;;;5048164;28;20018;-80
2021/05/07 10:03:08;;;;;;;4.93;1.40;;;20.30;42.30;;;;;;5053711;28;20092;-79
2021/05/07 10:05:35;;;;;;;1.85;1.38;;;20.30;42.60;;;;;;5053100;28;20040;-79
2021/05/07 10:08:02;;;;;;;3.97;1.52;;;20.40;41.90;;;;;;5053725;28;20075;-80
2021/05/07 10:10:32;;;;;;;2.70;1.70;;;20.30;41.50;;;;;;5053804;28;20029;-81
2021/05/07 10:13:00;;;;;;;7.20;2.33;;;20.10;41.80;;;;;;5053661;28;20029;-83
2021/05/07 10:15:32;;;;;;;3.72;1.98;;;20.10;42.90;;;;;;5053617;28;20024;-82
2021/05/07 10:17:59;;;;;;;2.83;1.33;;;20.10;42.00;;;;;;5032287;28;20361;-82
2021/05/07 10:20:30;;;;;;;2.13;1.42;;;20.10;42.90;;;;;;5049535;28;20489;-79
2021/05/07 10:22:56;;;;;;;3.13;2.00;;;20.30;42.70;;;;;;5053594;28;20025;-81
2021/05/07 10:25:23;;;;;;;3.78;2.03;;;20.40;42.70;;;;;;5053572;28;20032;-81
2021/05/07 10:27:54;;;;;;;1.63;1.52;;;20.50;42.50;;;;;;5053498;28;20099;-79
2021/05/07 10:30:27;;;;;;;1.85;1.38;;;20.50;42.80;;;;;;5053618;28;20025;-81
2021/05/07 10:33:24;;;;;;;1.95;1.10;;;20.60;42.90;;;;;;5052480;28;20029;-80
2021/05/07 10:35:54;;;;;;;2.33;1.45;;;20.70;43.20;;;;;;5051678;28;20091;-80
2021/05/07 10:38:21;;;;;;;3.15;2.15;;;20.90;43.10;;;;;;5053467;28;20032;-81
2021/05/07 10:41:02;;;;;;;12.35;2.50;;;21.00;43.10;;;;;;5053419;28;20047;-80
2021/05/07 10:43:38;;;;;;;2.95;1.65;;;21.00;42.40;;;;;;5053220;28;20031;-79
2021/05/07 10:46:04;;;;;;;4.55;1.70;;;21.00;42.60;;;;;;5053277;28;20029;-79
2021/05/07 10:48:29;;;;;;;2.58;2.30;;;21.10;43.10;;;;;;5053291;28;20766;-80
2021/05/07 10:51:04;;;;;;;2.45;1.80;;;21.00;42.30;;;;;;5053157;28;20029;-80
2021/05/07 10:53:37;;;;;;;2.38;1.67;;;21.00;42.30;;;;;;5051805;28;20111;-80
2021/05/07 10:56:18;;;;;;;4.00;1.60;;;20.90;42.30;;;;;;5051866;28;20039;-80
2021/05/07 10:58:44;;;;;;;4.07;1.55;;;20.90;42.40;;;;;;5051778;28;20654;-79
2021/05/07 11:01:20;;;;;;;2.92;1.83;;;20.80;42.70;;;;;;5053420;28;20408;-80
2021/05/07 11:03:57;;;;;;;2.75;1.60;;;20.70;41.80;;;;;;5041664;28;20029;-76
2021/05/07 11:06:37;;;;;;;3.75;1.70;;;20.60;42.30;;;;;;5052971;28;20025;-80
2021/05/07 11:09:20;;;;;;;;;;;20.60;42.40;;;;;;5050494;28;20032;-77
2021/05/07 11:11:47;;;;;;;2.78;1.50;;;20.40;42.90;;;;;;5047275;28;19916;-74
2021/05/07 11:14:15;;;;;;;2.35;1.42;;;20.40;43.40;;;;;;5049884;28;20071;-74
2021/05/07 11:16:43;;;;;;;5.32;2.00;;;20.40;43.60;;;;;;5051252;28;20463;-75
2021/05/07 11:19:20;;;;;;;3.53;1.60;;;20.40;43.00;;;;;;5053922;28;20021;-74
2021/05/07 11:22:12;;;;;;;4.15;1.30;;;20.50;42.60;;;;;;5052910;28;20481;-74
2021/05/07 11:24:40;;;;;;;5.68;2.20;;;20.40;43.00;;;;;;5050490;28;20037;-74
2021/05/07 11:27:25;;;;;;;12.10;2.15;;;20.20;43.20;;;;;;5054539;28;20111;-78
2021/05/07 11:29:57;;;;;;;7.22;1.70;;;20.00;42.90;;;;;;5055990;28;20035;-76
2021/05/07 11:32:25;;;;;;;4.15;1.50;;;19.90;43.50;;;;;;5055890;28;20075;-76
2021/05/07 11:35:08;;;;;;;3.35;1.75;;;19.70;44.10;;;;;;5054462;28;20111;-77
2021/05/07 11:37:35;;;;;;;1.95;1.70;;;19.50;44.70;;;;;;5056723;28;20052;-77
2021/05/07 11:40:09;;;;;;;8.18;2.20;;;19.40;45.30;;;;;;5056551;28;20067;-76
2021/05/07 11:42:38;;;;;;;7.63;2.05;;;19.20;45.20;;;;;;5055871;28;20025;-77
2021/05/07 11:45:09;;;;;;;4.43;1.80;;;19.10;45.60;;;;;;5055177;28;20021;-77
2021/05/07 11:47:39;;;;;;;6.65;2.08;;;19.00;46.60;;;;;;5055393;28;20445;-77
2021/05/07 11:50:08;;;;;;;5.68;1.95;;;18.90;47.20;;;;;;5056220;28;20025;-76
2021/05/07 11:52:37;;;;;;;6.10;1.80;;;18.80;47.70;;;;;;5056013;28;20100;-74
2021/05/07 11:55:06;;;;;;;2.83;1.55;;;18.80;48.00;;;;;;5055780;28;20020;-76
2021/05/07 11:57:33;;;;;;;4.85;2.00;;;18.70;49.40;;;;;;5055359;28;20055;-76
2021/05/07 12:00:00;;;;;;;6.75;3.63;;;18.50;50.00;;;;;;5054875;28;20030;-77
2021/05/07 12:02:30;;;;;;;7.75;4.55;;;18.30;51.30;;;;;;5054875;28;20029;-77
2021/05/07 12:04:56;;;;;;;4.22;2.50;;;18.20;51.70;;;;;;5056414;28;20025;-76
2021/05/07 12:07:34;;;;;;;4.78;2.15;;;18.10;51.80;;;;;;5054639;28;20033;-76
2021/05/07 12:10:01;;;;;;;6.18;3.10;;;18.10;51.90;;;;;;5054749;28;20021;-77
2021/05/07 12:12:28;;;;;;;8.30;4.25;;;17.90;52.70;;;;;;5054683;28;20052;-77
2021/05/07 12:15:22;;;;;;;4.95;3.03;;;17.80;53.20;;;;;;5054616;28;20112;-77
2021/05/07 12:17:50;;;;;;;6.50;3.05;;;17.80;53.70;;;;;;5049264;28;20034;-77
2021/05/07 12:20:23;;;;;;;9.88;3.78;;;17.60;54.00;;;;;;5035659;28;20026;-76
2021/05/07 12:22:52;;;;;;;8.55;3.30;;;17.60;53.80;;;;;;5034391;28;20025;-76
2021/05/07 12:25:20;;;;;;;10.48;3.20;;;17.60;54.30;;;;;;5043084;28;20459;-77
2021/05/07 12:27:47;;;;;;;3.65;2.47;;;17.70;55.20;;;;;;5054408;28;20069;-77
2021/05/07 12:30:36;;;;;;;4.32;1.85;;;17.80;54.70;;;;;;5053836;28;20025;-77
2021/05/07 12:33:11;;;;;;;2.40;1.70;;;18.10;53.70;;;;;;5037652;28;20083;-78
2021/05/07 12:35:49;;;;;;;3.72;2.50;;;18.20;53.90;;;;;;5034119;28;20045;-77
2021/05/07 12:38:36;;;;;;;3.88;3.03;;;18.50;52.90;;;;;;5039320;28;20056;-77
2021/05/07 12:41:07;;;;;;;5.45;3.50;;;18.80;52.50;;;;;;5028109;28;20030;-78
2021/05/07 12:43:35;;;;;;;5.78;4.57;;;18.90;52.20;;;;;;5039424;28;20068;-77
2021/05/07 12:46:04;;;;;;;11.30;5.68;;;19.10;51.80;;;;;;5053938;28;20119;-77
2021/05/07 12:48:31;;;;;;;8.48;4.78;;;19.10;50.90;;;;;;5052612;28;20029;-76